Time;durP1;ratioP1;P1;durP2;ratioP2;P2;SDS_P1;SDS_P2;PMS_P1;PMS_P2;Temp;Humidity;BMP_temperature;BMP_pressure;BME280_temperature;BME280_humidity;BME280_pressure;Samples;Min_cycle;Max_cycle;Signal;HPM_P1;HPM_P2
2023/05/08 00:01:18;;;;;;;7.03;3.17;;;;;;;7.57;61.54;101675.31;5057585;28;20264;-67
2023/05/08 00:03:46;;;;;;;2.97;2.67;;;;;;;7.57;61.34;101675.31;5056853;28;20568;-66
2023/05/08 00:06:15;;;;;;;3.93;2.63;;;;;;;7.57;61.91;101678.72;5064941;28;20209;-67
2023/05/08 00:08:42;;;;;;;4.30;3.13;;;;;;;7.56;62.39;101671.00;5066946;28;20201;-68
2023/05/08 00:11:10;;;;;;;4.57;3.23;;;;;;;7.55;61.97;101684.63;5059481;28;20228;-67
2023/05/08 00:13:40;;;;;;;3.23;2.63;;;;;;;7.50;62.92;101675.13;5064909;28;20239;-68
2023/05/08 00:16:10;;;;;;;3.30;2.93;;;;;;;7.46;62.86;101673.31;5066482;28;20625;-67
2023/05/08 00:18:38;;;;;;;3.17;2.83;;;;;;;7.47;62.81;101677.63;5058666;28;20731;-67
2023/05/08 00:21:06;;;;;;;4.80;2.77;;;;;;;7.44;62.95;101679.25;5059359;28;20202;-67
2023/05/08 00:23:34;;;;;;;4.30;3.20;;;;;;;7.44;63.17;101679.25;5064077;28;20197;-68
2023/05/08 00:26:02;;;;;;;3.17;2.83;;;;;;;7.41;63.02;101684.28;5068886;28;20270;-67
2023/05/08 00:28:30;;;;;;;4.97;3.00;;;;;;;7.36;62.92;101680.72;5064044;28;20548;-67
2023/05/08 00:31:01;;;;;;;3.40;2.50;;;;;;;7.30;63.57;101689.13;5062252;28;20224;-68
2023/05/08 00:33:29;;;;;;;3.27;2.83;;;;;;;7.26;63.75;101687.28;5060613;28;20682;-70
2023/05/08 00:36:00;;;;;;;5.37;3.27;;;;;;;7.25;64.01;101686.44;5052182;28;20877;-68
2023/05/08 00:38:30;;;;;;;3.83;2.77;;;;;;;7.22;64.67;101690.59;5064793;28;20205;-67
2023/05/08 00:40:58;;;;;;;4.53;3.07;;;;;;;7.16;64.68;101677.59;5068126;28;20323;-67
2023/05/08 00:43:27;;;;;;;3.93;2.87;;;;;;;7.15;64.92;101686.97;5066171;28;20270;-69
2023/05/08 00:45:56;;;;;;;4.87;3.00;;;;;;;7.10;63.88;101691.09;5063771;28;20233;-67
2023/05/08 00:48:28;;;;;;;3.13;2.67;;;;;;;7.03;64.97;101691.72;5064506;28;20620;-67
2023/05/08 00:50:56;;;;;;;3.90;2.97;;;;;;;6.99;65.53;101693.34;5068546;28;20201;-66
2023/05/08 00:53:26;;;;;;;3.30;2.60;;;;;;;6.96;65.07;101698.41;5068686;28;20631;-67
2023/05/08 00:55:54;;;;;;;4.33;2.20;;;;;;;6.93;65.56;101702.56;5069644;28;20205;-66
2023/05/08 00:58:25;;;;;;;4.10;3.00;;;;;;;6.91;65.66;101696.50;5058090;28;20206;-67
2023/05/08 01:00:56;;;;;;;3.43;2.87;;;;;;;6.89;65.44;101708.41;5056163;28;20213;-67
2023/05/08 01:03:25;;;;;;;3.83;3.10;;;;;;;6.89;65.25;101716.09;5061818;28;20210;-68
2023/05/08 01:05:54;;;;;;;5.93;3.43;;;;;;;6.84;66.31;101710.81;5059640;28;20197;-67
2023/05/08 01:08:22;;;;;;;4.90;2.93;;;;;;;6.86;65.77;101721.13;5055542;28;20206;-67
2023/05/08 01:11:01;;;;;;;3.87;3.20;;;;;;;6.83;66.06;101719.34;5062943;28;20197;-67
2023/05/08 01:13:38;;;;;;;6.83;3.40;;;;;;;6.80;65.76;101729.47;5065114;28;20776;-67
2023/05/08 01:16:14;;;;;;;5.20;4.27;;;;;;;6.75;65.50;101729.34;5065546;28;20652;-68
2023/05/08 01:18:47;;;;;;;3.77;3.20;;;;;;;6.69;66.35;101730.84;5064136;28;20236;-67
2023/05/08 01:21:25;;;;;;;5.60;4.10;;;;;;;6.63;66.62;101730.63;5061545;28;20616;-66
2023/05/08 01:24:31;;;;;;;4.83;3.73;;;;;;;6.61;66.55;101730.59;5061356;28;20205;-65
2023/05/08 01:27:28;;;;;;;6.20;3.90;;;;;;;6.59;66.67;101734.81;5065765;28;20542;-66
2023/05/08 01:30:27;;;;;;;6.50;3.70;;;;;;;6.54;66.96;101734.66;5031718;28;20194;-67
2023/05/08 01:33:01;;;;;;;5.33;4.57;;;;;;;6.52;67.08;101736.31;5055497;28;20613;-66
2023/05/08 01:35:34;;;;;;;5.23;3.70;;;;;;;6.49;67.24;101733.66;5064633;28;20215;-67
2023/05/08 01:38:08;;;;;;;5.23;4.40;;;;;;;6.53;67.15;101739.75;5061750;28;20201;-68
2023/05/08 01:40:45;;;;;;;7.20;3.87;;;;;;;6.55;67.59;101740.66;5064959;28;20652;-68
2023/05/08 01:43:19;;;;;;;5.70;4.07;;;;;;;6.54;66.86;101742.34;5066813;28;20197;-69
2023/05/08 01:45:52;;;;;;;5.43;4.20;;;;;;;6.49;67.00;101738.78;5061685;28;20205;-67
2023/05/08 01:48:25;;;;;;;5.83;4.00;;;;;;;6.46;67.32;101743.78;5063690;28;20324;-67
2023/05/08 01:51:00;;;;;;;5.57;4.10;;;;;;;6.43;67.58;101743.69;5060128;28;20234;-68
2023/05/08 01:53:30;;;;;;;4.27;3.63;;;;;;;6.40;68.02;101737.59;5068133;28;20574;-68
2023/05/08 01:56:05;;;;;;;6.03;3.77;;;;;;;6.41;67.90;101740.22;5057005;28;20201;-67
2023/05/08 01:58:35;;;;;;;6.83;4.63;;;;;;;6.41;67.74;101739.34;5064508;28;20548;-68
2023/05/08 02:01:03;;;;;;;5.63;3.73;;;;;;;6.47;68.10;101742.09;5068861;28;20672;-66
2023/05/08 02:03:34;;;;;;;5.90;4.40;;;;;;;6.50;67.70;101747.31;5064803;28;20206;-66
2023/05/08 02:06:04;;;;;;;4.80;4.20;;;;;;;6.53;67.58;101744.88;5066784;28;20209;-68
2023/05/08 02:08:35;;;;;;;5.83;4.30;;;;;;;6.53;67.44;101739.75;5055830;28;20216;-67
2023/05/08 02:11:05;;;;;;;7.40;5.00;;;;;;;6.55;67.40;101748.31;5059459;28;20562;-65
2023/05/08 02:13:36;;;;;;;7.50;4.30;;;;;;;6.52;67.86;101745.69;5059440;28;20636;-66
2023/05/08 02:16:07;;;;;;;5.30;4.47;;;;;;;6.49;67.88;101750.72;5069117;28;20201;-66
2023/05/08 02:18:38;;;;;;;7.70;4.83;;;;;;;6.49;68.01;101748.16;5065330;28;20205;-65
2023/05/08 02:21:09;;;;;;;8.60;4.47;;;;;;;6.48;67.64;101749.84;5068954;28;20602;-66
2023/05/08 02:23:38;;;;;;;6.87;4.93;;;;;;;6.46;67.78;101748.03;5053301;28;20206;-67
2023/05/08 02:26:06;;;;;;;6.07;4.43;;;;;;;6.43;67.43;101750.50;5071634;28;20698;-66
2023/05/08 02:28:36;;;;;;;5.90;4.00;;;;;;;6.38;68.04;101742.69;5055568;28;20256;-69
2023/05/08 02:31:06;;;;;;;6.57;4.80;;;;;;;6.36;68.14;101746.88;5044861;28;20551;-66
2023/05/08 02:33:38;;;;;;;7.70;4.80;;;;;;;6.28;68.70;101746.59;5060919;28;20235;-68
2023/05/08 02:36:08;;;;;;;7.67;5.13;;;;;;;6.29;68.15;101753.47;5066424;28;20201;-67
2023/05/08 02:38:38;;;;;;;5.40;4.70;;;;;;;6.24;69.11;101747.34;5061227;28;20209;-69
2023/05/08 02:41:07;;;;;;;5.13;4.60;;;;;;;6.20;68.69;101748.06;5064169;28;20213;-70
2023/05/08 02:43:36;;;;;;;7.70;5.30;;;;;;;6.16;69.23;101751.34;5072387;28;20255;-68
2023/05/08 02:46:12;;;;;;;5.47;4.77;;;;;;;6.16;69.01;101756.44;5064787;28;20652;-67
2023/05/08 02:48:51;;;;;;;7.13;5.13;;;;;;;6.15;69.04;101744.47;5062614;28;20209;-67
2023/05/08 02:51:24;;;;;;;6.17;4.73;;;;;;;6.15;68.73;101747.03;5065951;28;20607;-66
2023/05/08 02:53:56;;;;;;;6.17;5.23;;;;;;;6.14;68.92;101745.28;5071429;28;20197;-67
2023/05/08 02:56:34;;;;;;;7.27;4.97;;;;;;;6.12;68.96;101746.94;5062445;28;20206;-66
2023/05/08 02:59:13;;;;;;;11.50;5.97;;;;;;;6.09;69.35;101748.50;5063433;28;20652;-67
2023/05/08 03:01:47;;;;;;;9.03;5.43;;;;;;;6.07;69.49;101752.69;5063672;28;20283;-67
2023/05/08 03:04:24;;;;;;;7.07;5.40;;;;;;;6.02;69.43;101755.97;5061707;28;20202;-66
2023/05/08 03:06:56;;;;;;;6.30;5.60;;;;;;;5.99;69.68;101760.97;5067841;28;20228;-66
2023/05/08 03:09:42;;;;;;;8.17;5.73;;;;;;;6.04;70.08;101758.59;5069019;28;20338;-64
2023/05/08 03:12:15;;;;;;;8.63;5.50;;;;;;;6.04;69.63;101762.03;5059956;28;20245;-67
2023/05/08 03:14:52;;;;;;;12.77;6.33;;;;;;;6.04;70.26;101768.84;5071363;28;20202;-67
2023/05/08 03:17:24;;;;;;;7.43;5.73;;;;;;;6.05;70.04;101765.44;5063476;28;20201;-67
2023/05/08 03:19:59;;;;;;;9.67;6.47;;;;;;;6.06;70.20;101769.75;5061456;28;20197;-66
2023/05/08 03:22:30;;;;;;;9.27;6.63;;;;;;;6.04;70.03;101772.25;5064060;28;20209;-66
2023/05/08 03:25:01;;;;;;;7.60;6.40;;;;;;;6.05;70.37;101775.69;5067339;28;20201;-66
2023/05/08 03:27:30;;;;;;;8.20;6.20;;;;;;;6.09;70.31;101782.66;5067524;28;20255;-66
2023/05/08 03:29:59;;;;;;;8.83;6.60;;;;;;;6.12;70.05;101776.78;5068439;28;20806;-67
2023/05/08 03:32:29;;;;;;;9.90;6.50;;;;;;;6.15;70.02;101784.53;5061364;28;20204;-67
2023/05/08 03:34:59;;;;;;;10.10;6.73;;;;;;;6.15;70.16;101781.97;5063372;28;20663;-66
2023/05/08 03:37:27;;;;;;;8.37;6.80;;;;;;;6.18;70.11;101789.75;5055425;28;20194;-66
2023/05/08 03:39:55;;;;;;;9.97;6.87;;;;;;;6.17;69.95;101780.34;5059621;28;20201;-67
2023/05/08 03:42:24;;;;;;;11.97;7.23;;;;;;;6.18;70.15;101775.28;5061534;28;20249;-67
2023/05/08 03:44:52;;;;;;;9.77;7.30;;;;;;;6.21;70.15;101777.06;5054446;28;20202;-66
2023/05/08 03:47:23;;;;;;;10.57;7.10;;;;;;;6.22;69.80;101778.81;5068711;28;20251;-69
2023/05/08 03:49:51;;;;;;;11.67;7.60;;;;;;;6.26;69.89;101780.69;5066597;28;20205;-66
2023/05/08 03:52:20;;;;;;;11.57;6.43;;;;;;;6.31;69.76;101776.56;5063463;28;20232;-66
2023/05/08 03:54:48;;;;;;;9.87;6.93;;;;;;;6.37;69.83;101788.69;5063507;28;20197;-67
2023/05/08 03:57:16;;;;;;;8.77;6.80;;;;;;;6.43;69.98;101779.53;5063187;28;20194;-66
2023/05/08 03:59:51;;;;;;;13.50;7.90;;;;;;;6.53;70.17;101778.16;5063579;28;20648;-67
2023/05/08 04:02:28;;;;;;;10.53;6.90;;;;;;;6.66;69.55;101785.41;5063318;28;20797;-68
2023/05/08 04:05:05;;;;;;;11.03;7.77;;;;;;;6.74;68.92;101783.09;5065577;28;20602;-66
2023/05/08 04:07:42;;;;;;;9.03;7.20;;;;;;;6.77;68.78;101784.09;5063055;28;20244;-66
2023/05/08 04:10:16;;;;;;;11.17;7.73;;;;;;;6.82;68.60;101784.22;5054947;28;20205;-66
2023/05/08 04:12:52;;;;;;;14.73;7.77;;;;;;;6.93;68.84;101784.56;5059779;28;20237;-67
2023/05/08 04:15:22;;;;;;;11.83;7.20;;;;;;;7.02;68.45;101788.25;5065059;28;20674;-66
2023/05/08 04:17:55;;;;;;;10.63;7.47;;;;;;;7.12;68.05;101799.66;5059907;28;20204;-66
2023/05/08 04:20:29;;;;;;;11.70;6.87;;;;;;;7.21;67.82;101799.94;5060243;28;20280;-67
2023/05/08 04:22:59;;;;;;;15.63;7.10;;;;;;;7.32;67.17;101807.09;5052390;28;20311;-67
2023/05/08 04:25:30;;;;;;;8.43;6.60;;;;;;;7.37;66.89;101805.56;5061290;28;20201;-67
2023/05/08 04:28:01;;;;;;;13.33;6.50;;;;;;;7.45;66.81;101806.63;5066175;28;20197;-67
2023/05/08 04:30:30;;;;;;;9.23;5.80;;;;;;;7.55;65.84;101811.22;5057919;28;20197;-67
2023/05/08 04:33:00;;;;;;;6.53;4.70;;;;;;;7.62;65.25;101810.56;5049267;28;20197;-65
2023/05/08 04:35:28;;;;;;;9.00;5.30;;;;;;;7.74;65.09;101818.63;5051904;28;20197;-66
2023/05/08 04:37:58;;;;;;;5.67;4.90;;;;;;;7.89;64.55;101818.19;5059217;28;20564;-66
2023/05/08 04:40:28;;;;;;;8.17;4.67;;;;;;;8.04;63.60;101822.84;5065358;28;20644;-66
2023/05/08 04:42:56;;;;;;;6.03;4.57;;;;;;;8.12;62.57;101813.66;5060066;28;20213;-67
2023/05/08 04:45:24;;;;;;;6.30;4.43;;;;;;;8.20;62.99;101819.88;5065015;28;20212;-68
2023/05/08 04:47:53;;;;;;;4.17;3.57;;;;;;;8.28;62.00;101825.19;5061475;28;20205;-66
2023/05/08 04:50:21;;;;;;;5.40;3.77;;;;;;;8.38;61.25;101827.22;5067006;28;20247;-68
2023/05/08 04:52:49;;;;;;;4.40;3.57;;;;;;;8.49;61.34;101832.63;5068026;28;20194;-67
2023/05/08 04:55:18;;;;;;;3.83;3.03;;;;;;;8.61;59.95;101832.94;5067059;28;20213;-66
2023/05/08 04:57:47;;;;;;;5.37;3.37;;;;;;;8.75;59.93;101835.00;5060711;28;20658;-67
2023/05/08 05:00:16;;;;;;;5.97;2.80;;;;;;;8.96;58.92;101840.66;5058375;28;20201;-69
2023/05/08 05:02:44;;;;;;;3.23;2.60;;;;;;;9.18;58.26;101832.63;5070664;28;20262;-68
2023/05/08 05:05:13;;;;;;;4.60;2.47;;;;;;;9.52;57.55;101835.94;5056469;28;20256;-67
2023/05/08 05:07:41;;;;;;;4.07;2.23;;;;;;;9.97;56.38;101829.97;5056593;28;20216;-70
2023/05/08 05:10:11;;;;;;;4.60;2.33;;;;;;;10.71;53.47;101831.34;5056287;28;20202;-69
2023/05/08 05:12:39;;;;;;;5.37;2.50;;;;;;;11.81;51.24;101835.50;5061415;28;20726;-68
2023/05/08 05:15:10;;;;;;;2.97;2.30;;;;;;;13.18;48.17;101829.91;5055826;28;20236;-68
2023/05/08 05:17:38;;;;;;;3.37;2.30;;;;;;;14.59;44.98;101830.47;5059356;28;20201;-68
2023/05/08 05:20:07;;;;;;;2.37;2.17;;;;;;;15.79;41.70;101826.78;5063716;28;20197;-70
2023/05/08 05:22:35;;;;;;;3.63;2.37;;;;;;;16.23;39.33;101827.41;5057502;28;20304;-76
2023/05/08 05:25:04;;;;;;;2.63;2.20;;;;;;;16.40;38.25;101828.19;5054549;28;20539;-71
2023/05/08 05:27:34;;;;;;;3.33;2.20;;;;;;;16.59;38.23;101832.38;5058807;28;20615;-69
2023/05/08 05:30:03;;;;;;;2.67;2.47;;;;;;;16.94;36.90;101826.03;5049144;28;20208;-72
2023/05/08 05:32:32;;;;;;;3.50;2.60;;;;;;;17.90;36.29;101826.72;5054579;28;20424;-70
2023/05/08 05:35:00;;;;;;;4.13;3.03;;;;;;;19.03;33.31;101819.72;5057701;28;20220;-70
2023/05/08 05:37:28;;;;;;;3.20;2.53;;;;;;;20.20;31.28;101822.56;5067394;28;20225;-69
2023/05/08 05:39:56;;;;;;;3.40;2.70;;;;;;;21.34;29.70;101825.84;5052038;28;20290;-67
2023/05/08 05:42:23;;;;;;;3.53;3.17;;;;;;;22.41;28.08;101820.00;5058252;28;20213;-70
2023/05/08 05:44:52;;;;;;;3.78;2.50;;;;;;;23.34;26.36;101829.97;5060923;28;20248;-70
2023/05/08 05:47:20;;;;;;;3.28;2.40;;;;;;;23.87;25.19;101823.63;5054622;28;20267;-71
2023/05/08 05:49:49;;;;;;;3.25;2.22;;;;;;;24.44;24.20;101824.88;5059440;28;20669;-70
2023/05/08 05:52:17;;;;;;;3.45;2.33;;;;;;;24.75;23.19;101823.63;5068587;28;20221;-70
2023/05/08 05:54:45;;;;;;;4.18;2.22;;;;;;;25.05;22.92;101829.34;5059527;28;20276;-70
2023/05/08 05:57:13;;;;;;;2.63;2.17;;;;;;;25.45;22.34;101823.19;5068194;28;20202;-70
2023/05/08 05:59:42;;;;;;;2.33;2.13;;;;;;;25.52;21.25;101832.53;5061025;28;20205;-68
2023/05/08 06:02:13;;;;;;;2.75;2.03;;;;;;;25.73;21.42;101824.53;5072061;28;20221;-70
2023/05/08 06:04:41;;;;;;;2.55;2.35;;;;;;;25.93;20.89;101824.50;5060018;28;20201;-69
2023/05/08 06:07:12;;;;;;;2.10;1.70;;;;;;;26.17;21.09;101825.09;5074016;28;20209;-71
2023/05/08 06:09:40;;;;;;;4.00;1.92;;;;;;;26.60;20.15;101828.28;5069947;28;20202;-71
2023/05/08 06:12:08;;;;;;;3.25;2.20;;;;;;;26.39;20.30;101830.19;5073573;28;20298;-70
2023/05/08 06:14:36;;;;;;;4.45;2.10;;;;;;;26.18;20.25;101833.88;5058605;28;20290;-69
2023/05/08 06:17:04;;;;;;;3.00;2.45;;;;;;;25.99;19.84;101837.41;5072551;28;20205;-70
2023/05/08 06:19:32;;;;;;;3.42;2.58;;;;;;;25.75;19.94;101825.34;5062852;28;20656;-70
2023/05/08 06:22:02;;;;;;;4.68;2.55;;;;;;;25.57;20.56;101839.38;5054937;28;20634;-70
2023/05/08 06:24:36;;;;;;;3.25;2.90;;;;;;;25.53;20.40;101839.53;5059681;28;20205;-70
2023/05/08 06:27:04;;;;;;;3.25;2.45;;;;;;;25.61;20.22;101825.13;5063867;28;20206;-71
2023/05/08 06:29:32;;;;;;;4.97;2.35;;;;;;;25.93;20.10;101829.78;5056454;28;20232;-70
2023/05/08 06:32:00;;;;;;;4.03;2.28;;;;;;;26.46;20.01;101828.97;5062672;28;20247;-71
2023/05/08 06:34:28;;;;;;;3.15;2.25;;;;;;;26.95;19.18;101821.22;5058371;28;20255;-69
2023/05/08 06:36:56;;;;;;;2.47;2.10;;;;;;;27.36;19.08;101818.19;5058292;28;20205;-69
2023/05/08 06:39:24;;;;;;;4.07;2.00;;;;;;;27.62;18.39;101821.22;5064542;28;20236;-69
2023/05/08 06:41:53;;;;;;;3.25;2.17;;;;;;;28.15;18.06;101826.19;5070550;28;20209;-70
2023/05/08 06:44:21;;;;;;;2.92;1.85;;;;;;;28.44;17.57;101826.34;5059054;28;20348;-70
2023/05/08 06:46:49;;;;;;;2.05;1.75;;;;;;;28.77;17.40;101820.84;5055330;28;20209;-72
2023/05/08 06:49:17;;;;;;;2.10;1.20;;;;;;;28.26;16.33;101822.06;5060861;28;20267;-72
2023/05/08 06:51:45;;;;;;;2.83;1.27;;;;;;;27.61;16.97;101823.00;5060073;28;20201;-75
2023/05/08 06:54:13;;;;;;;1.40;1.30;;;;;;;27.33;17.85;101822.81;5064697;28;20209;-74
2023/05/08 06:56:41;;;;;;;1.45;1.15;;;;;;;27.60;17.38;101820.44;5067630;28;20209;-74
2023/05/08 06:59:11;;;;;;;1.90;1.30;;;;;;;27.56;17.01;101816.25;5059254;28;20609;-73
2023/05/08 07:01:40;;;;;;;1.50;1.25;;;;;;;27.32;17.40;101821.94;5060171;28;20206;-73
2023/05/08 07:04:08;;;;;;;1.48;1.25;;;;;;;27.09;17.45;101817.81;5072693;28;20300;-73
2023/05/08 07:06:36;;;;;;;1.40;1.30;;;;;;;27.52;17.61;101817.38;5073759;28;20215;-76
2023/05/08 07:09:04;;;;;;;3.55;1.38;;;;;;;28.63;17.45;101819.00;5062265;28;20676;-74
2023/05/08 07:11:32;;;;;;;1.73;1.35;;;;;;;29.31;15.63;101823.75;5066097;28;20212;-74
2023/05/08 07:14:00;;;;;;;1.80;1.70;;;;;;;28.94;16.05;101821.59;5066477;28;20232;-73
2023/05/08 07:16:29;;;;;;;2.03;1.30;;;;;;;28.35;16.36;101822.41;5064349;28;20205;-74
2023/05/08 07:18:57;;;;;;;1.95;1.42;;;;;;;27.51;16.76;101821.81;5059825;28;20209;-74
2023/05/08 07:21:25;;;;;;;1.95;1.42;;;;;;;27.17;17.88;101833.31;5055810;28;20209;-73
2023/05/08 07:23:53;;;;;;;3.33;1.52;;;;;;;27.40;17.77;101822.38;5059036;28;20624;-74
2023/05/08 07:26:21;;;;;;;1.92;1.55;;;;;;;28.20;16.98;101827.72;5062205;28;20558;-71
2023/05/08 07:28:52;;;;;;;1.60;1.50;;;;;;;28.70;16.43;101827.44;5071563;28;20197;-72
2023/05/08 07:31:21;;;;;;;1.60;1.42;;;;;;;28.84;16.36;101827.47;5055061;28;20255;-73
2023/05/08 07:33:50;;;;;;;3.88;1.73;;;;;;;29.15;16.10;101830.09;5059374;28;20210;-74
2023/05/08 07:36:18;;;;;;;2.10;1.33;;;;;;;28.73;15.98;101827.28;5055407;28;20206;-72
2023/05/08 07:38:46;;;;;;;2.53;1.48;;;;;;;28.77;16.11;101830.59;5060917;28;20210;-73
2023/05/08 07:41:14;;;;;;;1.83;1.40;;;;;;;29.51;16.16;101821.66;5061723;28;20197;-73
2023/05/08 07:43:44;;;;;;;1.70;1.50;;;;;;;30.54;14.99;101813.19;5063794;28;20692;-73
2023/05/08 07:46:16;;;;;;;2.90;1.40;;;;;;;30.96;14.96;101813.88;5067761;28;20702;-73
2023/05/08 07:48:44;;;;;;;3.08;1.30;;;;;;;31.53;14.36;101821.44;5059394;28;20194;-73
2023/05/08 07:51:14;;;;;;;2.25;1.33;;;;;;;31.01;14.10;101822.44;5066639;28;20999;-74
2023/05/08 07:53:42;;;;;;;3.40;1.85;;;;;;;29.95;14.36;101823.31;5064709;28;20832;-73
2023/05/08 07:56:09;;;;;;;2.05;1.50;;;;;;;28.81;15.56;101827.66;5064003;28;20228;-74
2023/05/08 07:58:37;;;;;;;1.77;1.67;;;;;;;28.22;16.41;101824.03;5069148;28;20220;-77
2023/05/08 08:01:05;;;;;;;2.22;1.23;;;;;;;27.71;15.84;101828.66;5062088;28;20263;-74
2023/05/08 08:03:33;;;;;;;1.60;1.50;;;;;;;26.61;17.65;101834.44;5066529;28;20258;-75
2023/05/08 08:06:01;;;;;;;2.22;1.50;;;;;;;26.56;18.21;101825.91;5072813;28;20292;-76
2023/05/08 08:08:31;;;;;;;2.42;1.70;;;;;;;27.21;17.40;101824.28;5073630;28;20262;-76
2023/05/08 08:10:58;;;;;;;4.13;1.60;;;;;;;26.97;17.01;101823.78;5070230;28;20197;-75
2023/05/08 08:13:29;;;;;;;1.88;1.65;;;;;;;26.06;18.71;101834.47;5067930;28;20225;-74
2023/05/08 08:15:57;;;;;;;3.03;1.75;;;;;;;24.79;19.30;101830.47;5056971;28;20197;-73
2023/05/08 08:18:25;;;;;;;2.13;1.60;;;;;;;23.65;20.51;101835.88;5068969;28;20285;-76
2023/05/08 08:20:53;;;;;;;3.35;1.80;;;;;;;22.60;22.22;101831.63;5069746;28;20201;-76
2023/05/08 08:23:21;;;;;;;3.92;1.50;;;;;;;21.97;23.22;101831.88;5071424;28;20655;-74
2023/05/08 08:25:52;;;;;;;2.22;1.90;;;;;;;20.99;23.89;101828.50;5064053;28;20201;-75
2023/05/08 08:28:21;;;;;;;2.15;1.90;;;;;;;20.06;25.19;101822.88;5064672;28;20243;-74
2023/05/08 08:30:49;;;;;;;3.25;1.77;;;;;;;19.54;26.69;101824.81;5061010;28;20271;-76
2023/05/08 08:33:17;;;;;;;4.10;1.77;;;;;;;19.27;27.04;101830.63;5055607;28;20220;-76
2023/05/08 08:35:46;;;;;;;1.98;1.67;;;;;;;18.80;27.75;101833.19;5054973;28;20731;-76
2023/05/08 08:38:14;;;;;;;2.67;1.70;;;;;;;18.39;27.99;101828.59;5053229;28;20214;-77
2023/05/08 08:40:42;;;;;;;2.35;1.83;;;;;;;17.53;29.14;101834.97;5064112;28;20201;-76
2023/05/08 08:43:12;;;;;;;2.25;1.80;;;;;;;17.04;30.97;101835.47;5046648;28;20609;-76
2023/05/08 08:45:40;;;;;;;2.63;1.73;;;;;;;16.93;31.14;101829.50;5065032;28;20221;-77
2023/05/08 08:48:11;;;;;;;1.83;1.67;;;;;;;16.82;31.15;101829.59;5068806;28;20355;-76
2023/05/08 08:50:43;;;;;;;2.28;1.73;;;;;;;16.87;30.26;101827.84;5066043;28;20255;-75
2023/05/08 08:53:19;;;;;;;2.95;2.08;;;;;;;16.90;29.54;101825.19;5071975;28;20270;-77
2023/05/08 08:55:51;;;;;;;2.63;1.90;;;;;;;16.70;29.64;101827.06;5062751;28;20243;-79
2023/05/08 08:58:27;;;;;;;1.90;1.65;;;;;;;16.26;30.00;101827.41;5062526;28;20206;-78
2023/05/08 09:00:56;;;;;;;3.03;1.83;;;;;;;15.93;30.70;101824.97;5059777;28;20237;-77
2023/05/08 09:03:24;;;;;;;1.75;1.63;;;;;;;15.77;30.78;101823.34;5068150;28;20209;-75
2023/05/08 09:05:53;;;;;;;1.75;1.50;;;;;;;15.63;30.57;101830.28;5057515;28;20201;-77
2023/05/08 09:08:21;;;;;;;2.33;1.77;;;;;;;15.45;32.45;101816.50;5057157;28;20205;-78
2023/05/08 09:10:49;;;;;;;2.58;1.90;;;;;;;15.36;32.38;101821.72;5065435;28;20201;-75
2023/05/08 09:13:18;;;;;;;1.92;1.73;;;;;;;15.22;32.91;101829.56;5069513;28;20237;-76
2023/05/08 09:15:49;;;;;;;2.78;1.77;;;;;;;15.15;32.77;101819.19;5059994;28;20698;-75
2023/05/08 09:18:18;;;;;;;2.15;1.95;;;;;;;15.10;32.78;101823.53;5065909;28;20672;-76
2023/05/08 09:20:46;;;;;;;2.55;2.03;;;;;;;14.95;33.21;101817.50;5064265;28;20244;-77
2023/05/08 09:23:16;;;;;;;3.40;1.85;;;;;;;15.10;33.52;101820.94;5062578;28;20240;-76
2023/05/08 09:25:46;;;;;;;1.70;1.58;;;;;;;15.93;32.81;101811.97;5057750;28;20263;-77
2023/05/08 09:28:17;;;;;;;1.90;1.70;;;;;;;16.88;29.16;101807.84;5067982;28;20275;-75
2023/05/08 09:30:51;;;;;;;2.22;2.03;;;;;;;16.93;28.69;101815.63;5070383;28;20206;-75
2023/05/08 09:33:20;;;;;;;1.95;1.65;;;;;;;17.02;28.35;101811.19;5059121;28;20209;-75
2023/05/08 09:35:48;;;;;;;3.05;1.83;;;;;;;18.40;27.69;101803.38;5067636;28;20213;-75
2023/05/08 09:38:36;;;;;;;5.18;1.77;;;;;;;20.72;25.69;101801.22;5068428;28;20223;-76
2023/05/08 09:41:09;;;;;;;3.25;2.15;;;;;;;22.66;22.70;101788.53;5060477;28;20198;-75
2023/05/08 09:43:38;;;;;;;2.72;1.55;;;;;;;23.89;21.09;101777.03;5062759;28;20320;-74
2023/05/08 09:46:24;;;;;;;1.90;1.75;;;;;;;24.43;20.54;101785.44;5067518;28;20213;-78
2023/05/08 09:48:54;;;;;;;2.20;1.67;;;;;;;25.59;19.36;101774.16;5065651;28;20201;-75
2023/05/08 09:51:24;;;;;;;3.50;1.58;;;;;;;26.96;16.92;101767.34;5060973;28;20213;-75
2023/05/08 09:53:52;;;;;;;2.22;1.40;;;;;;;27.67;16.76;101760.91;5070751;28;20198;-75
2023/05/08 09:56:31;;;;;;;3.65;1.60;;;;;;;27.90;16.05;101771.06;5069139;28;20259;-77
2023/05/08 09:59:02;;;;;;;1.45;1.35;;;;;;;28.03;15.44;101763.28;5070430;28;20611;-76
2023/05/08 10:01:32;;;;;;;2.00;1.60;;;;;;;28.10;15.60;101763.78;5064675;28;20625;-76
2023/05/08 10:04:01;;;;;;;2.85;1.38;;;;;;;28.28;15.39;101768.03;5070110;28;20236;-75
2023/05/08 10:06:30;;;;;;;3.08;1.20;;;;;;;28.44;15.19;101765.34;5063597;28;20209;-76
2023/05/08 10:09:11;;;;;;;2.33;1.30;;;;;;;28.62;14.71;101763.41;5064708;28;20604;-78
2023/05/08 10:11:40;;;;;;;3.85;1.42;;;;;;;28.28;15.06;101761.84;5062151;28;20241;-75
2023/05/08 10:14:08;;;;;;;2.25;1.48;;;;;;;28.17;15.62;101762.50;5071690;28;20194;-76
2023/05/08 10:16:41;;;;;;;2.40;1.73;;;;;;;28.47;15.25;101751.06;5062898;28;20262;-77
2023/05/08 10:19:14;;;;;;;3.05;1.27;;;;;;;27.14;14.64;101754.13;5058297;28;20244;-77
2023/05/08 10:21:45;;;;;;;1.58;1.48;;;;;;;24.93;16.91;101763.94;5062260;28;20202;-76
2023/05/08 10:24:16;;;;;;;2.70;1.60;;;;;;;23.41;18.14;101754.28;5061835;28;20601;-78
2023/05/08 10:26:53;;;;;;;1.58;1.40;;;;;;;21.66;20.35;101768.06;5070799;28;20652;-75
2023/05/08 10:29:41;;;;;;;3.45;1.83;;;;;;;20.14;22.44;101767.75;5049352;28;20229;-76
2023/05/08 10:32:13;;;;;;;2.20;1.90;;;;;;;20.04;23.06;101761.88;5060429;28;20216;-70
2023/05/08 10:34:41;;;;;;;1.80;1.70;;;;;;;20.67;22.50;101755.97;5053486;28;20201;-71
2023/05/08 10:37:10;;;;;;;6.13;2.33;;;;;;;20.43;22.71;101759.19;5059096;28;20209;-72
2023/05/08 10:39:42;;;;;;;3.50;1.75;;;;;;;19.79;23.57;101762.44;5055411;28;20218;-70
2023/05/08 10:42:11;;;;;;;3.50;1.90;;;;;;;19.10;24.08;101760.38;5059068;28;20197;-71
2023/05/08 10:44:39;;;;;;;3.00;1.75;;;;;;;18.52;24.58;101756.16;5061592;28;20247;-73
2023/05/08 10:47:19;;;;;;;2.10;1.73;;;;;;;18.05;25.50;101753.47;5062371;28;20660;-71
2023/05/08 10:49:55;;;;;;;2.55;1.85;;;;;;;17.71;25.02;101766.09;5057961;28;20211;-70
2023/05/08 10:52:31;;;;;;;1.80;1.70;;;;;;;17.86;25.00;101755.47;5064557;28;20204;-71
2023/05/08 10:55:23;;;;;;;2.28;2.08;;;;;;;18.14;25.31;101749.84;5072958;28;20254;-74
2023/05/08 10:58:06;;;;;;;3.75;1.80;;;;;;;18.58;24.98;101746.50;5064126;28;20683;-72
2023/05/08 11:01:11;;;;;;;1.63;1.52;;;;;;;18.78;24.51;101746.19;5071702;28;20204;-72
2023/05/08 11:03:47;;;;;;;1.50;1.38;;;;;;;18.45;24.82;101749.38;5063854;28;20668;-72
2023/05/08 11:06:15;;;;;;;7.25;1.80;;;;;;;18.70;25.06;101741.94;5065129;28;20270;-69
2023/05/08 11:08:48;;;;;;;3.83;1.60;;;;;;;20.02;24.50;101737.50;5069030;28;20237;-71
2023/05/08 11:11:30;;;;;;;2.55;1.98;;;;;;;20.93;22.66;101736.06;5055866;28;20250;-70
2023/05/08 11:14:13;;;;;;;3.50;2.25;;;;;;;21.74;21.94;101728.47;5057193;28;20217;-69
2023/05/08 11:17:06;;;;;;;2.40;1.85;;;;;;;22.28;21.10;101724.16;5058260;28;20649;-70
2023/05/08 11:19:37;;;;;;;2.22;1.65;;;;;;;22.80;20.12;101711.84;5056531;28;20209;-70
2023/05/08 11:22:28;;;;;;;5.38;1.75;;;;;;;22.65;20.21;101713.25;5057022;28;20202;-71
2023/05/08 11:24:59;;;;;;;4.25;1.80;;;;;;;22.16;20.41;101723.63;5063068;28;20201;-71
2023/05/08 11:27:41;;;;;;;2.22;2.03;;;;;;;21.37;21.25;101718.25;5064550;28;20202;-71
2023/05/08 11:30:44;;;;;;;3.20;2.15;;;;;;;20.54;21.09;101717.91;5055210;28;20209;-72
2023/05/08 11:33:16;;;;;;;4.13;1.73;;;;;;;20.22;21.77;101711.72;5048613;28;20335;-71
2023/05/08 11:35:48;;;;;;;1.83;1.73;;;;;;;19.58;22.69;101718.41;5057901;28;20649;-71
2023/05/08 11:38:22;;;;;;;3.00;2.00;;;;;;;18.87;23.71;101720.78;5063747;28;20675;-73
2023/05/08 11:40:59;;;;;;;3.47;1.80;;;;;;;18.29;24.26;101722.63;5058436;28;20527;-70
2023/05/08 11:44:13;;;;;;;2.33;1.70;;;;;;;18.26;24.87;101715.75;5067235;28;20196;-70
2023/05/08 11:46:43;;;;;;;2.55;1.60;;;;;;;18.75;24.54;101714.91;5068825;28;20620;-72
2023/05/08 11:49:15;;;;;;;5.25;1.92;;;;;;;19.07;24.38;101713.38;5064246;28;20711;-70